Time;durP1;ratioP1;P1;durP2;ratioP2;P2;SDS_P1;SDS_P2;PMS_P1;PMS_P2;Temp;Humidity;BMP_temperature;BMP_pressure;BME280_temperature;BME280_humidity;BME280_pressure;Samples;Min_cycle;Max_cycle;Signal;HPM_P1;HPM_P2
2023/01/04 00:02:08;;;;;;;34.40;12.90;;;;;;;;;;103437;1307;22461;-81
2023/01/04 00:04:34;;;;;;;33.00;11.70;;;;;;;;;;103482;1302;22700;-78
2023/01/04 00:07:01;;;;;;;22.30;8.00;;;;;;;;;;103331;1306;26423;-78
2023/01/04 00:09:27;;;;;;;19.40;5.70;;;;;;;;;;103319;1308;22464;-77
2023/01/04 00:11:54;;;;;;;15.10;5.20;;;;;;;;;;103353;1285;24233;-80
2023/01/04 00:14:21;;;;;;;12.50;4.30;;;;;;;;;;103210;1310;25291;-83
2023/01/04 00:16:47;;;;;;;14.00;4.40;;;;;;;;;;103444;1298;25381;-80
2023/01/04 00:19:14;;;;;;;13.60;4.40;;;;;;;;;;103468;1301;24374;-79
2023/01/04 00:21:40;;;;;;;15.70;4.60;;;;;;;;;;103302;1309;22446;-84
2023/01/04 00:24:08;;;;;;;11.40;4.30;;;;;;;;;;103399;1306;22443;-81
2023/01/04 00:26:36;;;;;;;12.50;4.20;;;;;;;;;;103399;1306;22509;-79
2023/01/04 00:29:04;;;;;;;11.90;4.10;;;;;;;;;;103498;1306;24259;-79
2023/01/04 00:31:31;;;;;;;12.20;3.90;;;;;;;;;;103395;1306;26438;-82
2023/01/04 00:33:59;;;;;;;12.30;4.10;;;;;;;;;;103361;1306;23375;-79
2023/01/04 00:36:26;;;;;;;13.90;4.20;;;;;;;;;;103437;1301;22578;-80
2023/01/04 00:39:06;;;;;;;14.10;4.20;;;;;;;;;;103104;1309;24388;-82
2023/01/04 00:41:33;;;;;;;12.60;4.70;;;;;;;;;;107075;1300;22050;-76
2023/01/04 00:44:02;;;;;;;12.10;4.60;;;;;;;;;;107166;1298;22053;-76
2023/01/04 00:46:28;;;;;;;11.10;4.30;;;;;;;;;;107229;1292;22835;-76
2023/01/04 00:48:55;;;;;;;12.70;4.50;;;;;;;;;;106870;1306;22777;-76
2023/01/04 00:51:22;;;;;;;12.90;5.20;;;;;;;;;;106919;1302;22028;-76
2023/01/04 00:53:48;;;;;;;13.70;4.50;;;;;;;;;;106894;1306;22097;-76
2023/01/04 00:56:15;;;;;;;13.00;5.00;;;;;;;;;;106830;1307;22110;-76
2023/01/04 00:58:41;;;;;;;12.60;5.10;;;;;;;;;;106898;1306;22073;-76
2023/01/04 01:01:08;;;;;;;12.50;5.10;;;;;;;;;;106701;1301;22206;-76
2023/01/04 01:03:35;;;;;;;14.40;5.70;;;;;;;;;;106898;1306;22065;-76
2023/01/04 01:06:02;;;;;;;14.40;5.70;;;;;;;;;;106929;1306;22039;-75
2023/01/04 01:08:29;;;;;;;14.60;5.20;;;;;;;;;;106906;1306;22736;-76
2023/01/04 01:11:01;;;;;;;14.40;5.90;;;;;;;;;;106901;1306;22041;-76
2023/01/04 01:13:27;;;;;;;12.80;5.60;;;;;;;;;;106734;1307;22073;-76
2023/01/04 01:15:54;;;;;;;14.50;5.90;;;;;;;;;;106864;1307;22049;-76
2023/01/04 01:18:20;;;;;;;15.00;5.40;;;;;;;;;;106891;1307;22089;-76
2023/01/04 01:20:47;;;;;;;12.70;5.10;;;;;;;;;;106694;1307;22035;-76
2023/01/04 01:23:14;;;;;;;12.70;5.10;;;;;;;;;;107102;1299;22604;-76
2023/01/04 01:25:41;;;;;;;14.90;5.30;;;;;;;;;;106641;1304;22064;-76
2023/01/04 01:28:08;;;;;;;14.10;4.70;;;;;;;;;;106763;1292;22134;-76
2023/01/04 01:30:39;;;;;;;12.80;5.10;;;;;;;;;;106930;1306;22120;-76
2023/01/04 01:33:07;;;;;;;12.40;5.20;;;;;;;;;;106927;1306;22047;-76
2023/01/04 01:35:34;;;;;;;13.10;5.20;;;;;;;;;;106712;1308;21997;-76
2023/01/04 01:38:01;;;;;;;16.60;5.50;;;;;;;;;;106980;1299;22027;-76
2023/01/04 01:40:28;;;;;;;14.20;5.20;;;;;;;;;;106865;1304;22111;-76
2023/01/04 01:42:55;;;;;;;14.00;5.60;;;;;;;;;;107137;1297;22033;-76
2023/01/04 01:45:27;;;;;;;14.10;5.60;;;;;;;;;;106842;1299;22788;-76
2023/01/04 01:47:57;;;;;;;13.00;5.00;;;;;;;;;;107144;1299;22049;-76
2023/01/04 01:50:28;;;;;;;12.40;5.20;;;;;;;;;;107126;1287;22742;-76
2023/01/04 01:52:55;;;;;;;14.40;5.40;;;;;;;;;;107120;1299;22050;-76
2023/01/04 01:55:22;;;;;;;17.70;5.90;;;;;;;;;;106762;1300;22165;-76
2023/01/04 01:57:49;;;;;;;15.10;5.50;;;;;;;;;;106785;1309;22164;-76
2023/01/04 02:00:16;;;;;;;15.60;5.50;;;;;;;;;;106786;1300;22088;-76
2023/01/04 02:02:59;;;;;;;16.60;6.30;;;;;;;;;;106929;1306;22125;-76
2023/01/04 02:05:27;;;;;;;17.30;5.40;;;;;;;;;;106649;1310;22069;-76
2023/01/04 02:07:53;;;;;;;13.40;5.50;;;;;;;;;;106730;1308;22095;-76
2023/01/04 02:10:20;;;;;;;16.90;5.80;;;;;;;;;;106740;1304;22039;-76
2023/01/04 02:12:49;;;;;;;13.90;5.30;;;;;;;;;;106870;1309;22786;-76
2023/01/04 02:15:15;;;;;;;15.40;5.40;;;;;;;;;;106875;1306;22140;-76
2023/01/04 02:18:01;;;;;;;14.20;5.20;;;;;;;;;;106908;1306;22071;-76
2023/01/04 02:20:46;;;;;;;13.20;5.40;;;;;;;;;;107131;1285;22525;-76
2023/01/04 02:23:27;;;;;;;16.60;5.30;;;;;;;;;;106919;1306;22674;-76
2023/01/04 02:26:08;;;;;;;18.90;6.10;;;;;;;;;;106891;1297;22111;-77
2023/01/04 02:28:50;;;;;;;17.80;6.30;;;;;;;;;;106924;1301;22061;-77
2023/01/04 02:31:19;;;;;;;18.60;7.20;;;;;;;;;;106898;1305;22070;-77
2023/01/04 02:33:46;;;;;;;17.50;6.50;;;;;;;;;;106849;1302;21950;-75
2023/01/04 02:36:22;;;;;;;17.90;6.50;;;;;;;;;;106843;1306;22127;-76
2023/01/04 02:38:58;;;;;;;16.70;5.60;;;;;;;;;;107075;1285;22045;-76
2023/01/04 02:41:43;;;;;;;15.20;6.60;;;;;;;;;;106885;1309;22149;-75
2023/01/04 02:47:13;;;;;;;13.80;5.70;;;;;;;;;;106885;1306;22053;-76
2023/01/04 02:52:26;;;;;;;16.00;6.30;;;;;;;;;;106899;1306;22115;-76
2023/01/04 02:54:54;;;;;;;17.10;6.30;;;;;;;;;;106876;1306;23231;-76
2023/01/04 02:57:25;;;;;;;14.50;6.50;;;;;;;;;;106637;1310;21995;-75
2023/01/04 03:00:05;;;;;;;16.20;7.50;;;;;;;;;;106880;1307;22052;-77
2023/01/04 03:08:44;;;;;;;15.90;6.60;;;;;;;;;;107085;1287;22076;-77
2023/01/04 03:13:59;;;;;;;17.00;6.80;;;;;;;;;;106668;1309;22105;-76
2023/01/04 03:16:27;;;;;;;14.70;6.20;;;;;;;;;;106844;1288;22086;-76
2023/01/04 03:18:56;;;;;;;13.90;6.50;;;;;;;;;;106715;1290;21986;-76
2023/01/04 03:21:24;;;;;;;15.00;6.60;;;;;;;;;;106711;1309;22795;-76
2023/01/04 03:35:44;;;;;;;16.60;6.20;;;;;;;;;;106736;1309;22129;-76
2023/01/04 03:49:42;;;;;;;15.40;5.30;;;;;;;;;;106677;1309;22158;-76
2023/01/04 03:52:09;;;;;;;13.00;5.30;;;;;;;;;;106606;1304;21996;-76
2023/01/04 03:54:42;;;;;;;12.90;5.40;;;;;;;;;;106644;1310;22044;-76
2023/01/04 03:57:10;;;;;;;12.70;5.40;;;;;;;;;;106619;1309;22390;-76
2023/01/04 03:59:42;;;;;;;14.20;5.40;;;;;;;;;;106699;1309;22109;-76
2023/01/04 04:02:12;;;;;;;13.20;5.20;;;;;;;;;;106710;1308;22063;-76
2023/01/04 04:10:10;;;;;;;14.90;5.90;;;;;;;;;;106718;1309;22062;-76
2023/01/04 04:12:37;;;;;;;15.00;5.60;;;;;;;;;;106599;1309;22764;-76
2023/01/04 04:15:04;;;;;;;13.20;5.50;;;;;;;;;;106601;1304;22074;-76
2023/01/04 04:17:31;;;;;;;14.30;5.70;;;;;;;;;;106621;1309;21965;-76
2023/01/04 04:19:57;;;;;;;13.60;5.40;;;;;;;;;;106674;1300;22065;-76
2023/01/04 04:22:24;;;;;;;12.80;5.50;;;;;;;;;;106624;1307;21652;-76
2023/01/04 04:24:50;;;;;;;13.40;5.80;;;;;;;;;;106684;1310;22059;-76
2023/01/04 04:27:17;;;;;;;15.00;5.40;;;;;;;;;;106930;1302;22128;-76
2023/01/04 04:29:44;;;;;;;14.20;5.30;;;;;;;;;;106677;1302;22028;-76
2023/01/04 04:32:10;;;;;;;16.70;6.10;;;;;;;;;;106708;1308;22084;-76
2023/01/04 04:34:37;;;;;;;25.60;11.30;;;;;;;;;;106734;1309;22064;-77
2023/01/04 04:37:04;;;;;;;25.80;9.80;;;;;;;;;;106870;1288;22160;-76
2023/01/04 04:39:30;;;;;;;24.20;10.00;;;;;;;;;;106646;1297;22745;-76
2023/01/04 04:41:57;;;;;;;18.90;8.40;;;;;;;;;;106695;1310;22076;-77
2023/01/04 04:44:23;;;;;;;15.00;6.10;;;;;;;;;;106682;1310;22058;-76
2023/01/04 04:46:50;;;;;;;15.80;6.40;;;;;;;;;;106684;1309;22083;-76
2023/01/04 04:49:17;;;;;;;14.80;6.20;;;;;;;;;;106668;1309;22062;-76
2023/01/04 04:51:44;;;;;;;16.20;6.50;;;;;;;;;;106739;1309;22646;-76
2023/01/04 04:54:14;;;;;;;14.90;6.40;;;;;;;;;;106690;1309;22049;-76
2023/01/04 04:56:40;;;;;;;14.40;6.30;;;;;;;;;;106674;1301;22069;-76
2023/01/04 04:59:07;;;;;;;17.60;7.20;;;;;;;;;;106642;1302;22065;-76
2023/01/04 05:01:34;;;;;;;18.60;7.90;;;;;;;;;;106592;1309;22036;-76
2023/01/04 05:04:00;;;;;;;16.10;7.40;;;;;;;;;;106628;1310;21949;-76
2023/01/04 05:06:27;;;;;;;17.40;7.00;;;;;;;;;;106650;1310;22644;-76
2023/01/04 05:08:54;;;;;;;16.10;6.90;;;;;;;;;;106556;1310;22072;-76
2023/01/04 05:12:58;;;;;;;21.00;8.70;;;;;;;;;;106675;1310;22713;-76
2023/01/04 05:14:08;;;;;;;16.10;7.90;;;;;;;;;;106658;1309;22290;-76
2023/01/04 05:16:35;;;;;;;17.60;7.70;;;;;;;;;;106626;1310;22063;-76
2023/01/04 05:19:01;;;;;;;17.00;6.80;;;;;;;;;;106620;1309;22089;-76
2023/01/04 05:21:29;;;;;;;17.20;8.20;;;;;;;;;;106666;1310;22069;-76
2023/01/04 05:23:55;;;;;;;16.70;8.20;;;;;;;;;;106761;1290;22767;-76
2023/01/04 05:26:22;;;;;;;18.40;7.60;;;;;;;;;;106670;1310;22085;-76
2023/01/04 05:28:49;;;;;;;18.10;7.80;;;;;;;;;;106525;1310;22801;-76
2023/01/04 05:31:16;;;;;;;19.40;8.70;;;;;;;;;;106654;1310;22072;-75
2023/01/04 05:33:43;;;;;;;19.60;9.50;;;;;;;;;;106658;1310;22738;-78
2023/01/04 05:36:10;;;;;;;19.40;9.00;;;;;;;;;;106618;1310;22113;-77
2023/01/04 05:38:37;;;;;;;22.30;9.50;;;;;;;;;;106576;1306;22787;-77
2023/01/04 05:42:23;;;;;;;20.30;9.30;;;;;;;;;;106880;1291;22840;-77
2023/01/04 05:43:51;;;;;;;18.30;8.60;;;;;;;;;;106614;1310;22095;-78
2023/01/04 05:46:17;;;;;;;21.40;9.30;;;;;;;;;;106576;1310;22061;-77
2023/01/04 05:48:44;;;;;;;21.30;10.40;;;;;;;;;;106864;1301;22095;-77
2023/01/04 05:51:11;;;;;;;23.80;10.00;;;;;;;;;;106664;1309;22091;-77
2023/01/04 05:53:38;;;;;;;27.20;10.30;;;;;;;;;;106590;1310;22818;-77
2023/01/04 05:56:05;;;;;;;19.30;8.80;;;;;;;;;;106657;1310;21935;-77
2023/01/04 05:58:32;;;;;;;22.00;9.20;;;;;;;;;;106845;1297;22366;-77
2023/01/04 06:00:58;;;;;;;22.20;9.70;;;;;;;;;;106361;1310;22142;-78
2023/01/04 06:03:25;;;;;;;19.10;9.50;;;;;;;;;;106900;1302;22079;-77
2023/01/04 06:05:53;;;;;;;20.10;9.90;;;;;;;;;;106624;1310;22092;-77
2023/01/04 06:08:21;;;;;;;20.00;9.90;;;;;;;;;;106529;1311;22037;-77
2023/01/04 06:10:53;;;;;;;21.30;10.10;;;;;;;;;;106666;1309;22146;-78
2023/01/04 06:13:21;;;;;;;22.70;10.90;;;;;;;;;;106601;1310;22663;-77
2023/01/04 06:15:48;;;;;;;21.70;11.10;;;;;;;;;;106683;1309;22117;-78
2023/01/04 06:18:16;;;;;;;24.00;12.30;;;;;;;;;;106788;1302;22059;-77
2023/01/04 06:20:44;;;;;;;25.00;13.10;;;;;;;;;;106607;1309;22135;-77
2023/01/04 06:23:12;;;;;;;23.20;12.40;;;;;;;;;;106651;1311;22110;-77
2023/01/04 06:25:39;;;;;;;23.90;11.60;;;;;;;;;;106549;1304;22784;-76
2023/01/04 06:28:06;;;;;;;23.00;10.50;;;;;;;;;;106583;1306;22065;-78
2023/01/04 06:30:34;;;;;;;25.60;10.70;;;;;;;;;;106559;1309;22083;-77
2023/01/04 06:33:02;;;;;;;23.20;10.10;;;;;;;;;;106700;1309;22095;-77
2023/01/04 06:35:29;;;;;;;21.70;10.00;;;;;;;;;;106667;1309;22100;-77
2023/01/04 06:37:57;;;;;;;26.10;10.50;;;;;;;;;;106689;1309;22093;-77
2023/01/04 06:40:25;;;;;;;23.70;10.60;;;;;;;;;;106522;1312;22180;-81
2023/01/04 06:42:52;;;;;;;24.00;10.20;;;;;;;;;;106461;1310;22092;-78
2023/01/04 06:45:19;;;;;;;21.40;9.60;;;;;;;;;;106582;1311;22134;-77
2023/01/04 06:47:47;;;;;;;20.00;9.70;;;;;;;;;;106651;1310;21978;-77
2023/01/04 06:50:14;;;;;;;19.90;9.70;;;;;;;;;;106895;1297;22042;-77
2023/01/04 06:52:42;;;;;;;21.70;9.90;;;;;;;;;;106585;1309;22068;-77
2023/01/04 06:55:10;;;;;;;26.20;11.00;;;;;;;;;;106700;1309;22080;-76
2023/01/04 06:57:37;;;;;;;24.80;9.60;;;;;;;;;;106775;1297;22049;-77
2023/01/04 07:00:05;;;;;;;21.60;8.90;;;;;;;;;;106531;1312;22104;-77
2023/01/04 07:02:32;;;;;;;20.30;9.60;;;;;;;;;;106576;1310;22092;-75
2023/01/04 07:05:01;;;;;;;24.80;10.60;;;;;;;;;;106463;1311;22768;-75
2023/01/04 07:07:30;;;;;;;22.10;9.90;;;;;;;;;;106593;1312;22751;-76
2023/01/04 07:09:59;;;;;;;23.10;9.30;;;;;;;;;;106511;1312;23006;-76
2023/01/04 07:12:28;;;;;;;23.90;9.60;;;;;;;;;;106537;1310;22564;-76
2023/01/04 07:14:58;;;;;;;20.40;9.00;;;;;;;;;;106576;1310;22174;-76
2023/01/04 07:17:27;;;;;;;24.20;9.30;;;;;;;;;;106610;1303;22121;-75
2023/01/04 07:19:56;;;;;;;23.40;11.00;;;;;;;;;;106609;1306;22134;-76
2023/01/04 07:22:25;;;;;;;25.40;11.70;;;;;;;;;;106573;1310;22194;-76
2023/01/04 07:24:55;;;;;;;25.20;10.90;;;;;;;;;;106598;1311;22168;-76
2023/01/04 07:27:24;;;;;;;22.20;10.90;;;;;;;;;;106477;1310;22114;-76
2023/01/04 07:29:53;;;;;;;23.60;11.50;;;;;;;;;;106476;1312;22574;-75
2023/01/04 07:32:22;;;;;;;22.30;10.30;;;;;;;;;;106528;1307;22059;-76
2023/01/04 07:34:51;;;;;;;33.60;12.60;;;;;;;;;;106571;1311;22091;-76
2023/01/04 07:37:20;;;;;;;39.80;13.40;;;;;;;;;;106540;1312;22779;-76
2023/01/04 07:39:49;;;;;;;34.80;14.20;;;;;;;;;;106542;1312;22493;-76
2023/01/04 07:42:20;;;;;;;27.30;12.30;;;;;;;;;;106575;1312;22793;-76
2023/01/04 07:44:49;;;;;;;23.90;9.00;;;;;;;;;;106486;1312;22076;-76
2023/01/04 07:47:18;;;;;;;26.40;9.60;;;;;;;;;;106471;1312;22059;-76
2023/01/04 07:49:50;;;;;;;21.30;9.10;;;;;;;;;;106610;1312;22044;-76
2023/01/04 07:52:19;;;;;;;22.50;9.40;;;;;;;;;;106488;1312;22870;-76
2023/01/04 07:54:49;;;;;;;26.60;9.50;;;;;;;;;;106592;1312;22083;-77
2023/01/04 07:57:18;;;;;;;18.80;8.40;;;;;;;;;;106568;1302;22041;-76
2023/01/04 07:59:47;;;;;;;16.40;7.50;;;;;;;;;;106595;1310;22653;-76
2023/01/04 08:02:16;;;;;;;16.10;7.40;;;;;;;;;;106592;1310;22129;-77
2023/01/04 08:11:45;;;;;;;13.40;5.90;;;;;;;;;;100333;1342;545326;-77
2023/01/04 08:14:12;;;;;;;14.90;5.90;;;;;;;;;;102727;1317;24247;-78
2023/01/04 08:16:39;;;;;;;16.60;6.50;;;;;;;;;;102745;1317;25346;-81
2023/01/04 08:19:10;;;;;;;14.60;6.60;;;;;;;;;;102730;1317;24308;-78
2023/01/04 08:21:37;;;;;;;12.90;6.00;;;;;;;;;;102542;1295;22476;-78
2023/01/04 08:24:04;;;;;;;12.20;4.70;;;;;;;;;;102602;1317;24258;-85
2023/01/04 08:26:30;;;;;;;10.00;4.10;;;;;;;;;;101750;1316;1680886;-81
2023/01/04 08:28:57;;;;;;;10.00;4.10;;;;;;;;;;102854;1315;22472;-79
2023/01/04 08:31:26;;;;;;;10.10;4.30;;;;;;;;;;103224;1308;25372;-79
2023/01/04 08:33:53;;;;;;;14.20;4.80;;;;;;;;;;103449;1307;24241;-84
2023/01/04 08:36:27;;;;;;;12.50;5.30;;;;;;;;;;103453;1307;22495;-82
2023/01/04 08:38:55;;;;;;;10.80;3.70;;;;;;;;;;103516;1307;23834;-80
2023/01/04 08:41:21;;;;;;;8.10;3.10;;;;;;;;;;103511;1307;25336;-79
2023/01/04 08:43:48;;;;;;;8.70;3.60;;;;;;;;;;103505;1307;22584;-78
2023/01/04 08:46:14;;;;;;;8.20;3.30;;;;;;;;;;103356;1286;24265;-80
2023/01/04 08:48:41;;;;;;;9.20;3.80;;;;;;;;;;103289;1307;25589;-82
2023/01/04 08:51:13;;;;;;;11.90;3.60;;;;;;;;;;103519;1285;22507;-76
2023/01/04 08:53:41;;;;;;;9.40;3.60;;;;;;;;;;103330;1308;22508;-82
2023/01/04 08:56:07;;;;;;;12.60;3.70;;;;;;;;;;103516;1301;22469;-80
2023/01/04 08:58:35;;;;;;;12.40;3.90;;;;;;;;;;103493;1307;22582;-83
2023/01/04 09:01:09;;;;;;;10.30;3.70;;;;;;;;;;103497;1298;25204;-83
2023/01/04 09:03:37;;;;;;;8.70;3.30;;;;;;;;;;103404;1284;22936;-81
2023/01/04 09:06:05;;;;;;;11.30;3.10;;;;;;;;;;103233;1294;24268;-77
2023/01/04 09:08:32;;;;;;;10.40;3.60;;;;;;;;;;103122;1288;22591;-78
2023/01/04 09:11:09;;;;;;;9.30;3.70;;;;;;;;;;103312;1288;25247;-80
2023/01/04 09:13:36;;;;;;;11.90;3.80;;;;;;;;;;103009;1304;23217;-86
2023/01/04 09:16:04;;;;;;;10.80;3.70;;;;;;;;;;103228;1295;22478;-84
2023/01/04 09:18:31;;;;;;;11.30;3.30;;;;;;;;;;103180;1310;23889;-82
2023/01/04 09:21:00;;;;;;;9.10;3.50;;;;;;;;;;103161;1282;25302;-77
2023/01/04 09:23:27;;;;;;;9.60;3.40;;;;;;;;;;103369;1297;22469;-81
2023/01/04 09:25:54;;;;;;;7.40;3.00;;;;;;;;;;103177;1289;22525;-84
2023/01/04 09:28:21;;;;;;;10.70;3.60;;;;;;;;;;103023;1296;24281;-82
2023/01/04 09:30:47;;;;;;;10.60;3.70;;;;;;;;;;103153;1304;22472;-78
2023/01/04 09:33:14;;;;;;;7.90;3.20;;;;;;;;;;103229;1297;25059;-80
2023/01/04 09:35:40;;;;;;;9.40;3.80;;;;;;;;;;103020;1297;22475;-83
2023/01/04 09:38:07;;;;;;;7.10;2.90;;;;;;;;;;103023;1303;25182;-77
2023/01/04 09:40:42;;;;;;;9.80;3.10;;;;;;;;;;103226;1298;22702;-84
2023/01/04 09:43:14;;;;;;;10.20;3.20;;;;;;;;;;103424;1308;25197;-82
2023/01/04 09:45:41;;;;;;;8.50;3.20;;;;;;;;;;103040;1310;23140;-81
2023/01/04 09:48:14;;;;;;;9.10;3.40;;;;;;;;;;102979;1307;22520;-75
2023/01/04 09:50:52;;;;;;;11.40;3.80;;;;;;;;;;102989;1311;22463;-83
2023/01/04 09:53:18;;;;;;;13.80;3.70;;;;;;;;;;103315;1309;24324;-78
2023/01/04 09:55:48;;;;;;;13.00;4.00;;;;;;;;;;103183;1305;22937;-77
2023/01/04 09:58:35;;;;;;;8.90;3.80;;;;;;;;;;103279;1310;23892;-83
2023/01/04 10:01:04;;;;;;;10.90;3.20;;;;;;;;;;103246;1297;22475;-81
2023/01/04 10:03:35;;;;;;;10.60;3.70;;;;;;;;;;103175;1310;23046;-82
2023/01/04 10:06:02;;;;;;;10.40;4.00;;;;;;;;;;103068;1310;24317;-84
2023/01/04 10:08:32;;;;;;;23.00;3.90;;;;;;;;;;103070;1310;22475;-82
2023/01/04 10:11:17;;;;;;;11.20;3.50;;;;;;;;;;103030;1303;25317;-79
2023/01/04 10:14:03;;;;;;;16.60;3.70;;;;;;;;;;103254;1304;22471;-84
2023/01/04 10:16:48;;;;;;;12.70;3.40;;;;;;;;;;103237;1287;22463;-82
2023/01/04 10:19:22;;;;;;;8.60;3.60;;;;;;;;;;103091;1310;25281;-80
2023/01/04 10:22:07;;;;;;;8.50;3.50;;;;;;;;;;103164;1310;25061;-79
2023/01/04 10:24:37;;;;;;;8.30;3.10;;;;;;;;;;103243;1305;25266;-82
2023/01/04 10:27:07;;;;;;;19.70;4.00;;;;;;;;;;103071;1311;25423;-81
2023/01/04 10:29:38;;;;;;;16.20;3.70;;;;;;;;;;103070;1310;22445;-82
2023/01/04 10:32:14;;;;;;;12.90;2.60;;;;;;;;;;103225;1288;22472;-86
2023/01/04 10:34:44;;;;;;;13.00;3.10;;;;;;;;;;103126;1310;22519;-82
2023/01/04 10:37:19;;;;;;;29.40;4.00;;;;;;;;;;103060;1310;25486;-78
2023/01/04 10:48:40;;;;;;;12.30;3.80;;;;;;;;;;100348;1342;545271;-78
2023/01/04 10:51:06;;;;;;;9.20;3.60;;;;;;;;;;102678;1311;23061;-82
2023/01/04 10:53:45;;;;;;;9.30;3.50;;;;;;;;;;102598;1317;22472;-83
2023/01/04 10:56:33;;;;;;;12.20;4.20;;;;;;;;;;103429;1310;22529;-84
2023/01/04 10:59:11;;;;;;;10.90;4.40;;;;;;;;;;103270;1299;22559;-80
2023/01/04 11:01:41;;;;;;;9.90;3.30;;;;;;;;;;102108;1307;1630807;-79
2023/01/04 11:04:17;;;;;;;14.40;4.10;;;;;;;;;;103277;1301;22712;-80
2023/01/04 11:06:47;;;;;;;11.10;3.00;;;;;;;;;;103456;1307;25197;-81
2023/01/04 11:09:16;;;;;;;15.50;2.80;;;;;;;;;;103213;1303;25259;-79
2023/01/04 11:11:44;;;;;;;8.70;2.50;;;;;;;;;;103402;1307;22475;-77
2023/01/04 11:14:11;;;;;;;7.40;3.10;;;;;;;;;;103463;1307;23847;-80
2023/01/04 11:16:43;;;;;;;20.00;4.00;;;;;;;;;;103410;1307;22467;-80
2023/01/04 11:19:10;;;;;;;13.50;3.40;;;;;;;;;;103328;1307;24248;-78
2023/01/04 11:21:48;;;;;;;7.40;3.30;;;;;;;;;;103403;1307;22493;-77
2023/01/04 11:24:15;;;;;;;8.70;3.20;;;;;;;;;;103181;1307;22841;-77
2023/01/04 11:26:44;;;;;;;7.20;3.10;;;;;;;;;;103187;1307;22464;-80
2023/01/04 11:29:19;;;;;;;8.90;3.60;;;;;;;;;;103397;1302;23062;-78
2023/01/04 11:31:49;;;;;;;10.10;3.80;;;;;;;;;;103389;1307;22464;-79
2023/01/04 11:34:15;;;;;;;9.80;4.10;;;;;;;;;;103370;1307;22474;-78
2023/01/04 11:36:46;;;;;;;9.60;4.20;;;;;;;;;;103236;1307;22566;-81
2023/01/04 11:39:23;;;;;;;10.30;4.40;;;;;;;;;;103615;1292;25293;-77
2023/01/04 11:41:55;;;;;;;8.80;4.30;;;;;;;;;;103461;1291;22533;-80
2023/01/04 11:44:22;;;;;;;9.80;4.20;;;;;;;;;;103342;1285;24176;-79
2023/01/04 11:47:12;;;;;;;12.30;4.90;;;;;;;;;;103436;1292;24237;-78
2023/01/04 11:49:39;;;;;;;15.00;4.90;;;;;;;;;;103429;1300;25200;-79
2023/01/04 11:52:25;;;;;;;12.80;5.20;;;;;;;;;;103262;1288;23889;-78
2023/01/04 11:54:52;;;;;;;12.60;5.10;;;;;;;;;;103544;1293;22480;-77
2023/01/04 11:57:20;;;;;;;10.20;4.00;;;;;;;;;;103462;1279;25263;-80
2023/01/04 12:00:06;;;;;;;9.40;3.90;;;;;;;;;;103229;1286;22479;-79
2023/01/04 12:02:57;;;;;;;9.40;3.90;;;;;;;;;;103379;1286;22478;-78
2023/01/04 12:05:24;;;;;;;8.30;3.20;;;;;;;;;;103238;1283;25340;-80
2023/01/04 12:07:52;;;;;;;8.90;3.20;;;;;;;;;;103436;1288;24268;-82
2023/01/04 12:10:25;;;;;;;8.80;3.40;;;;;;;;;;103127;1281;25291;-78
2023/01/04 12:12:53;;;;;;;11.40;3.10;;;;;;;;;;103228;1295;22475;-82
2023/01/04 12:15:33;;;;;;;10.00;3.50;;;;;;;;;;103468;1282;22519;-78
2023/01/04 12:18:04;;;;;;;15.30;4.30;;;;;;;;;;103409;1302;22564;-77
2023/01/04 12:20:31;;;;;;;9.80;3.30;;;;;;;;;;103135;1291;22477;-79
2023/01/04 12:22:58;;;;;;;9.70;3.40;;;;;;;;;;103429;1291;22480;-81
2023/01/04 12:25:25;;;;;;;7.70;2.80;;;;;;;;;;103407;1292;22728;-76
2023/01/04 12:27:54;;;;;;;9.80;2.90;;;;;;;;;;103484;1292;22606;-81
2023/01/04 12:30:45;;;;;;;9.90;3.50;;;;;;;;;;103316;1285;22483;-78
2023/01/04 12:33:31;;;;;;;9.80;3.10;;;;;;;;;;103646;1307;22468;-79
2023/01/04 12:36:03;;;;;;;9.10;2.90;;;;;;;;;;103514;1292;23198;-77
2023/01/04 12:38:56;;;;;;;8.60;2.80;;;;;;;;;;103595;1307;22537;-78
2023/01/04 12:42:02;;;;;;;7.80;3.00;;;;;;;;;;103330;1286;23885;-81
2023/01/04 12:44:35;;;;;;;7.90;2.50;;;;;;;;;;103473;1292;25502;-76
2023/01/04 12:50:22;;;;;;;7.80;2.50;;;;;;;;;;103735;1301;24306;-84
2023/01/04 12:52:51;;;;;;;9.20;3.00;;;;;;;;;;103561;1290;22455;-78
2023/01/04 12:55:18;;;;;;;9.60;2.80;;;;;;;;;;103647;1283;22460;-78
2023/01/04 12:57:48;;;;;;;7.60;2.50;;;;;;;;;;103697;1283;25298;-78
2023/01/04 13:00:15;;;;;;;10.00;2.70;;;;;;;;;;103475;1292;25335;-77
2023/01/04 13:03:01;;;;;;;8.00;2.80;;;;;;;;;;103436;1287;22708;-80
2023/01/04 13:05:31;;;;;;;9.20;2.50;;;;;;;;;;103617;1291;23843;-78
2023/01/04 13:07:59;;;;;;;9.20;3.00;;;;;;;;;;103410;1306;24417;-76
2023/01/04 13:10:26;;;;;;;8.90;2.80;;;;;;;;;;103493;1282;22666;-78
2023/01/04 13:12:56;;;;;;;8.90;3.10;;;;;;;;;;103801;1290;25740;-82
2023/01/04 13:15:41;;;;;;;8.80;2.60;;;;;;;;;;103778;1286;22483;-83
2023/01/04 13:18:25;;;;;;;7.80;3.00;;;;;;;;;;103885;1283;24360;-84
2023/01/04 13:20:52;;;;;;;8.80;3.20;;;;;;;;;;103637;1282;22537;-80
2023/01/04 13:23:26;;;;;;;7.90;3.00;;;;;;;;;;103508;1282;22481;-79
2023/01/04 13:25:53;;;;;;;8.50;3.50;;;;;;;;;;103547;1289;25273;-81
2023/01/04 13:28:22;;;;;;;7.40;2.50;;;;;;;;;;103515;1275;24214;-76
2023/01/04 13:30:49;;;;;;;7.60;3.60;;;;;;;;;;103718;1289;24317;-78
2023/01/04 13:33:19;;;;;;;7.70;2.70;;;;;;;;;;103780;1280;22463;-83
2023/01/04 13:36:01;;;;;;;9.90;3.70;;;;;;;;;;103572;1299;25398;-82
2023/01/04 13:38:30;;;;;;;8.70;3.30;;;;;;;;;;103576;1282;22992;-76
2023/01/04 13:40:57;;;;;;;9.70;4.00;;;;;;;;;;103689;1289;22462;-76
2023/01/04 13:43:28;;;;;;;6.30;2.40;;;;;;;;;;103518;1292;22504;-78
2023/01/04 13:46:03;;;;;;;7.80;2.70;;;;;;;;;;103723;1285;24288;-76
2023/01/04 13:48:34;;;;;;;8.00;2.90;;;;;;;;;;103408;1306;23341;-76
2023/01/04 13:51:02;;;;;;;8.70;3.10;;;;;;;;;;103347;1292;24234;-77
2023/01/04 13:53:30;;;;;;;9.10;3.30;;;;;;;;;;103504;1279;22727;-78
2023/01/04 13:55:58;;;;;;;9.30;3.10;;;;;;;;;;103601;1291;22466;-76
2023/01/04 13:58:29;;;;;;;12.00;3.70;;;;;;;;;;103471;1302;23944;-77
2023/01/04 14:01:05;;;;;;;12.70;4.00;;;;;;;;;;103513;1306;25217;-78
2023/01/04 14:03:38;;;;;;;8.80;2.90;;;;;;;;;;103452;1306;22458;-81
2023/01/04 14:06:08;;;;;;;8.00;3.00;;;;;;;;;;103460;1284;22501;-81
2023/01/04 14:08:36;;;;;;;10.30;3.50;;;;;;;;;;103506;1300;22489;-77
2023/01/04 14:11:11;;;;;;;11.80;4.80;;;;;;;;;;103501;1288;24214;-76
2023/01/04 14:13:43;;;;;;;15.20;5.00;;;;;;;;;;103513;1289;22468;-81
2023/01/04 14:16:12;;;;;;;11.90;4.60;;;;;;;;;;103511;1288;22483;-77
2023/01/04 14:18:39;;;;;;;9.40;3.30;;;;;;;;;;103453;1289;25313;-76
2023/01/04 14:21:16;;;;;;;8.80;3.40;;;;;;;;;;103482;1275;22470;-79
2023/01/04 14:23:43;;;;;;;10.40;4.30;;;;;;;;;;103427;1283;23787;-77
2023/01/04 14:26:30;;;;;;;11.00;5.00;;;;;;;;;;103335;1293;25334;-79
2023/01/04 14:28:57;;;;;;;11.70;4.80;;;;;;;;;;103479;1278;25413;-80
2023/01/04 14:31:26;;;;;;;9.60;4.10;;;;;;;;;;103431;1301;24384;-78
2023/01/04 14:33:54;;;;;;;10.30;4.10;;;;;;;;;;103282;1285;25217;-77
2023/01/04 14:36:25;;;;;;;10.50;4.50;;;;;;;;;;103481;1285;22454;-78
2023/01/04 14:38:54;;;;;;;9.40;4.30;;;;;;;;;;103528;1288;25207;-77
2023/01/04 14:41:31;;;;;;;11.00;4.80;;;;;;;;;;103509;1292;26632;-77
2023/01/04 14:43:58;;;;;;;8.90;3.40;;;;;;;;;;103281;1306;24252;-78
2023/01/04 14:46:27;;;;;;;33.00;12.90;;;;;;;;;;103429;1283;22541;-82
2023/01/04 14:48:54;;;;;;;13.00;5.30;;;;;;;;;;103514;1282;25242;-81
2023/01/04 14:51:23;;;;;;;11.50;5.10;;;;;;;;;;103393;1285;25200;-78
2023/01/04 14:53:53;;;;;;;11.10;4.50;;;;;;;;;;103691;1289;22477;-78
2023/01/04 14:56:20;;;;;;;11.20;4.10;;;;;;;;;;103774;1304;24394;-77
2023/01/04 14:58:47;;;;;;;9.00;3.20;;;;;;;;;;103734;1304;24235;-78
2023/01/04 15:01:13;;;;;;;12.70;4.90;;;;;;;;;;103557;1304;23123;-81
2023/01/04 15:03:40;;;;;;;10.00;3.70;;;;;;;;;;103637;1301;26473;-83
2023/01/04 15:06:07;;;;;;;10.60;4.00;;;;;;;;;;103457;1306;22470;-81
2023/01/04 15:08:33;;;;;;;10.80;3.80;;;;;;;;;;103481;1306;22467;-83
2023/01/04 15:11:01;;;;;;;8.50;3.00;;;;;;;;;;103516;1306;25350;-77
2023/01/04 15:13:29;;;;;;;10.40;3.90;;;;;;;;;;103595;1304;22473;-82
2023/01/04 15:15:56;;;;;;;9.00;3.10;;;;;;;;;;103516;1304;23974;-79
2023/01/04 15:18:23;;;;;;;9.30;3.90;;;;;;;;;;103793;1278;25287;-81
2023/01/04 15:20:50;;;;;;;10.30;4.30;;;;;;;;;;103619;1304;22455;-78
2023/01/04 15:23:16;;;;;;;11.60;4.80;;;;;;;;;;103550;1307;22460;-83
2023/01/04 15:25:43;;;;;;;8.80;3.70;;;;;;;;;;103518;1307;22466;-82
2023/01/04 15:28:10;;;;;;;10.90;3.60;;;;;;;;;;103469;1307;22461;-79
2023/01/04 15:30:40;;;;;;;9.90;3.90;;;;;;;;;;103476;1307;22476;-83
2023/01/04 15:33:07;;;;;;;11.90;4.50;;;;;;;;;;103717;1304;24422;-77
2023/01/04 15:35:34;;;;;;;13.90;5.10;;;;;;;;;;103341;1283;22452;-78
2023/01/04 15:38:01;;;;;;;15.30;6.20;;;;;;;;;;103817;1289;22461;-79